createdAt,value
2023-01-03T00:04:55.965Z,114.21
2023-01-03T00:10:04.544Z,125.52
2023-01-03T00:15:13.066Z,110.80
2023-01-03T00:20:22.426Z,105.24
2023-01-03T00:25:31.027Z,99.40
2023-01-03T00:30:40.193Z,108.82
2023-01-03T00:35:48.649Z,93.20
2023-01-03T00:40:58.004Z,92.11
2023-01-03T00:46:06.583Z,96.00
2023-01-03T00:51:15.284Z,99.71
2023-01-03T00:56:23.492Z,90.04
2023-01-03T01:01:32.803Z,98.57
2023-01-03T01:06:40.325Z,101.65
2023-01-03T01:11:49.081Z,97.90
2023-01-03T01:16:57.455Z,89.00
2023-01-03T01:22:06.563Z,97.64
2023-01-03T01:27:14.874Z,86.51
2023-01-03T01:32:23.718Z,109.35
2023-01-03T01:37:32.436Z,118.70
2023-01-03T01:42:41.674Z,117.73
2023-01-03T01:47:50.233Z,140.35
2023-01-03T01:52:59.132Z,123.99
2023-01-03T01:58:07.749Z,104.85
2023-01-03T02:03:16.584Z,103.47
2023-01-03T02:08:24.735Z,93.33
2023-01-03T02:13:33.440Z,109.61
2023-01-03T02:18:41.772Z,118.77
2023-01-03T02:23:50.750Z,114.41
2023-01-03T02:28:59.048Z,104.01
2023-01-03T02:34:08.056Z,101.39
2023-01-03T02:39:21.906Z,90.40
2023-01-03T02:44:24.881Z,87.99
2023-01-03T02:49:33.255Z,95.37
2023-01-03T02:54:42.285Z,102.84
2023-01-03T02:59:51.135Z,109.98
2023-01-03T03:04:59.769Z,104.06
2023-01-03T03:10:08.443Z,92.08
2023-01-03T03:15:17.899Z,91.80
2023-01-03T03:20:26.488Z,94.75
2023-01-03T03:25:34.975Z,76.73
2023-01-03T03:30:43.401Z,86.72
2023-01-03T03:35:52.393Z,71.99
2023-01-03T03:41:00.999Z,84.08
2023-01-03T03:46:09.954Z,84.45
2023-01-03T03:51:18.448Z,100.31
2023-01-03T03:56:27.091Z,111.86
2023-01-03T04:01:35.738Z,111.07
2023-01-03T04:06:44.258Z,97.40
2023-01-03T04:11:52.933Z,104.82
2023-01-03T04:17:01.888Z,99.93
2023-01-03T04:22:10.625Z,109.78
2023-01-03T04:27:19.525Z,142.66
2023-01-03T04:32:27.834Z,164.62
2023-01-03T04:37:36.351Z,188.26
2023-01-03T04:42:44.938Z,179.40
2023-01-03T04:47:53.222Z,201.29
2023-01-03T04:53:02.112Z,179.45
2023-01-03T04:58:10.899Z,185.99
2023-01-03T05:03:25.728Z,169.64
2023-01-03T05:08:28.096Z,203.14
2023-01-03T05:13:36.797Z,171.88
2023-01-03T05:18:45.398Z,158.19
2023-01-03T05:23:53.809Z,186.64
2023-01-03T05:29:02.622Z,183.47
2023-01-03T05:34:11.246Z,171.17
2023-01-03T05:39:20.689Z,164.95
2023-01-03T05:44:29.396Z,137.09
2023-01-03T05:49:38.518Z,136.02
2023-01-03T05:54:47.558Z,163.52
2023-01-03T05:59:56.284Z,99.23
2023-01-03T06:05:05.404Z,91.54
2023-01-03T06:10:13.845Z,96.40
2023-01-03T06:15:23.605Z,106.35
2023-01-03T06:20:33.164Z,131.15
2023-01-03T06:25:41.585Z,98.60
2023-01-03T06:30:50.585Z,108.80
2023-01-03T06:35:59.185Z,131.53
2023-01-03T06:41:08.092Z,128.96
2023-01-03T06:46:17.117Z,119.46
2023-01-03T06:51:25.907Z,129.69
2023-01-03T06:56:34.428Z,125.08
2023-01-03T07:01:44.038Z,112.05
2023-01-03T07:06:52.728Z,105.40
2023-01-03T07:12:01.892Z,132.94
2023-01-03T07:17:10.494Z,137.14
2023-01-03T07:22:19.819Z,129.15
2023-01-03T07:27:28.431Z,132.66
2023-01-03T07:32:37.290Z,141.68
2023-01-03T07:37:46.218Z,97.97
2023-01-03T07:42:54.906Z,113.05
2023-01-03T07:48:03.095Z,99.41
2023-01-03T07:53:12.137Z,110.66
2023-01-03T07:58:20.776Z,118.12
2023-01-03T08:03:29.979Z,134.06
2023-01-03T08:08:38.335Z,116.04
2023-01-03T08:13:47.320Z,145.95
2023-01-03T08:18:56.248Z,97.13
2023-01-03T08:24:05.053Z,77.65
2023-01-03T08:29:14.399Z,65.41
2023-01-03T08:34:29.374Z,71.90
2023-01-03T08:39:31.958Z,68.60
2023-01-03T08:44:40.775Z,42.30
2023-01-03T08:49:49.418Z,29.75
2023-01-03T08:54:58.788Z,21.48
2023-01-03T09:00:07.498Z,18.07
2023-01-03T09:05:17.135Z,16.87
2023-01-03T09:10:25.953Z,16.11
2023-01-03T09:15:34.674Z,6.73
2023-01-03T09:20:43.239Z,2.76
2023-01-03T09:25:52.796Z,2.51
2023-01-03T09:31:01.973Z,2.13
2023-01-03T09:36:11.230Z,1.93
2023-01-03T09:41:20.092Z,2.02
2023-01-03T09:46:28.920Z,1.98
2023-01-03T09:51:37.897Z,2.08
2023-01-03T09:56:46.875Z,2.43
2023-01-03T10:01:55.379Z,2.07
2023-01-03T10:07:04.508Z,1.98
2023-01-03T10:12:13.559Z,1.86
2023-01-03T10:17:22.440Z,1.68
2023-01-03T10:22:31.431Z,1.52
2023-01-03T10:27:40.340Z,2.13
2023-01-03T10:32:49.760Z,1.06
2023-01-03T10:37:58.597Z,0.64
2023-01-03T10:43:07.476Z,0.58
2023-01-03T10:48:16.677Z,0.43
2023-01-03T10:53:25.295Z,0.36
2023-01-03T10:58:36.565Z,0.27
2023-01-03T11:03:49.441Z,0.35
2023-01-03T11:08:52.851Z,0.31
2023-01-03T11:14:01.528Z,0.35
2023-01-03T11:19:10.883Z,0.29
2023-01-03T11:24:19.219Z,0.29
2023-01-03T11:29:28.661Z,0.32
2023-01-03T11:35:11.482Z,0.32
2023-01-03T11:39:45.515Z,0.40
2023-01-03T11:44:54.553Z,0.35
2023-01-03T11:50:04.727Z,0.37
2023-01-03T11:55:03.182Z,0.45
2023-01-03T12:00:12.252Z,0.35
2023-01-03T12:05:20.598Z,0.36
2023-01-03T12:10:29.866Z,0.34
2023-01-03T12:15:38.384Z,0.43
2023-01-03T12:20:47.186Z,0.53
2023-01-03T12:25:55.623Z,0.45
2023-01-03T12:31:05.172Z,0.35
2023-01-03T12:36:13.758Z,0.47
2023-01-03T12:41:22.859Z,0.45
2023-01-03T12:46:31.647Z,0.53
2023-01-03T12:51:40.870Z,0.48
2023-01-03T12:56:50.163Z,0.54
2023-01-03T13:01:59.450Z,0.44
2023-01-03T13:07:08.278Z,0.49
2023-01-03T13:12:17.911Z,0.40
2023-01-03T13:17:26.847Z,0.54
2023-01-03T13:22:35.780Z,0.47
2023-01-03T13:27:44.317Z,0.45
2023-01-03T13:32:53.698Z,0.51
2023-01-03T13:38:02.497Z,0.51
2023-01-03T13:43:11.248Z,0.49
2023-01-03T13:48:19.684Z,0.54
2023-01-03T13:53:29.075Z,0.59
2023-01-03T13:58:38.273Z,0.55
2023-01-03T14:03:47.625Z,0.43
2023-01-03T14:08:55.927Z,0.67
2023-01-03T14:14:05.134Z,0.57
2023-01-03T14:19:14.225Z,0.54
2023-01-03T14:24:23.423Z,0.63
2023-01-03T14:29:32.284Z,0.57
2023-01-03T14:34:41.251Z,0.54
2023-01-03T14:39:50.620Z,0.47
2023-01-03T14:44:59.336Z,0.57
2023-01-03T14:50:07.658Z,0.44
2023-01-03T14:55:16.897Z,0.51
2023-01-03T15:00:32.157Z,0.41
2023-01-03T15:05:33.747Z,0.52
2023-01-03T15:10:42.675Z,0.53
2023-01-03T15:15:51.644Z,0.54
2023-01-03T15:21:00.430Z,0.52
2023-01-03T15:26:09.534Z,0.48
2023-01-03T15:31:18.596Z,0.50
2023-01-03T15:36:27.287Z,0.49
2023-01-03T15:41:36.655Z,0.49
2023-01-03T15:46:45.987Z,0.39
2023-01-03T15:51:54.742Z,0.44
2023-01-03T15:57:04.002Z,0.41
2023-01-03T16:02:12.943Z,0.44
2023-01-03T16:07:22.782Z,0.43
2023-01-03T16:12:31.513Z,0.38
2023-01-03T16:17:40.659Z,0.46
2023-01-03T16:22:59.849Z,0.49
2023-01-03T16:27:58.829Z,0.43
2023-01-03T16:33:07.429Z,0.54
2023-01-03T16:38:16.544Z,0.49
2023-01-03T16:43:25.233Z,0.35
2023-01-03T16:48:33.905Z,0.49
2023-01-03T16:53:42.246Z,0.40
2023-01-03T16:58:51.250Z,0.51
2023-01-03T17:04:00.086Z,0.54
2023-01-03T17:09:09.058Z,0.56
2023-01-03T17:14:17.740Z,0.70
2023-01-03T17:24:35.052Z,0.56
2023-01-03T17:29:44.804Z,0.66
2023-01-03T17:34:53.113Z,0.59
2023-01-03T17:40:02.114Z,0.54
2023-01-03T17:45:10.765Z,0.52
2023-01-03T17:50:20.724Z,0.58
2023-01-03T17:55:19.244Z,0.66
2023-01-03T18:00:27.784Z,0.64
2023-01-03T18:05:37.114Z,0.58
2023-01-03T18:10:46.890Z,0.63
2023-01-03T18:15:53.897Z,0.57
2023-01-03T18:21:03.138Z,0.65
2023-01-03T18:26:12.068Z,0.55
2023-01-03T18:31:21.205Z,0.67
2023-01-03T18:36:29.881Z,0.73
2023-01-03T18:41:38.864Z,0.71
2023-01-03T18:46:48.055Z,0.71
2023-01-03T18:51:56.535Z,0.63
2023-01-03T18:57:05.880Z,0.67
2023-01-03T19:02:15.092Z,0.74
2023-01-03T19:07:23.539Z,0.57
2023-01-03T19:12:32.902Z,0.61
2023-01-03T19:17:41.265Z,0.61
2023-01-03T19:22:50.497Z,0.71
2023-01-03T19:27:59.118Z,0.70
2023-01-03T19:33:08.871Z,0.63
2023-01-03T19:38:17.541Z,0.64
2023-01-03T19:43:26.638Z,0.55
2023-01-03T19:48:35.322Z,0.58
2023-01-03T19:53:44.920Z,0.63
2023-01-03T19:58:57.876Z,0.53
2023-01-03T20:04:02.514Z,0.59
2023-01-03T20:09:11.235Z,0.55
2023-01-03T20:14:19.460Z,0.54
2023-01-03T20:19:28.794Z,0.60
2023-01-03T20:24:37.670Z,0.64
2023-01-03T20:29:47.507Z,0.59
2023-01-03T20:34:56.335Z,0.73
2023-01-03T20:40:05.028Z,0.61
2023-01-03T20:45:14.312Z,0.67
2023-01-03T20:50:22.754Z,0.73
2023-01-03T20:55:31.780Z,0.69
2023-01-03T21:00:40.444Z,0.62
2023-01-03T21:05:49.410Z,0.69
2023-01-03T21:10:59.061Z,0.53
2023-01-03T21:16:08.170Z,0.55
2023-01-03T21:21:17.053Z,0.58
2023-01-03T21:26:26.040Z,0.76
2023-01-03T21:31:34.871Z,0.49
2023-01-03T21:36:43.521Z,0.66
2023-01-03T21:41:52.260Z,0.67
2023-01-03T21:47:01.377Z,0.50
2023-01-03T21:52:11.094Z,0.44
2023-01-03T21:57:23.380Z,0.55
2023-01-03T22:02:28.614Z,0.39
2023-01-03T22:07:37.293Z,0.44
2023-01-03T22:12:45.761Z,0.30
2023-01-03T22:17:54.739Z,0.31
2023-01-03T22:23:03.540Z,0.38
2023-01-03T22:28:12.827Z,0.33
2023-01-03T22:33:21.923Z,0.47
2023-01-03T22:38:30.487Z,0.39
2023-01-03T22:43:39.279Z,0.25
2023-01-03T22:48:48.032Z,0.29
2023-01-03T22:53:56.198Z,0.34
2023-01-03T22:59:05.253Z,0.35
2023-01-03T23:04:13.665Z,0.41
2023-01-03T23:09:22.813Z,0.41
2023-01-03T23:14:31.867Z,0.28
2023-01-03T23:19:40.726Z,0.30
2023-01-03T23:24:49.288Z,0.32
2023-01-03T23:29:57.976Z,0.31
2023-01-03T23:35:06.645Z,0.25
2023-01-03T23:40:15.767Z,0.26
2023-01-03T23:45:24.284Z,0.15
2023-01-03T23:50:33.702Z,0.36
2023-01-03T23:55:42.141Z,0.25
